sensor_id;sensor_type;location;lat;lon;timestamp;pressure;altitude;pressure_sealevel;temperature;humidity
5755;BME280;2902;42.130;24.732;2023-05-25T00:00:37;99378.19;;;18.63;81.61
5755;BME280;2902;42.130;24.732;2023-05-25T00:03:04;99372.56;;;18.64;81.76
5755;BME280;2902;42.130;24.732;2023-05-25T00:05:32;99374.13;;;18.60;81.31
5755;BME280;2902;42.130;24.732;2023-05-25T00:08:00;99372.75;;;18.58;82.21
5755;BME280;2902;42.130;24.732;2023-05-25T00:10:26;99380.19;;;18.51;81.07
5755;BME280;2902;42.130;24.732;2023-05-25T00:12:55;99373.19;;;18.50;81.64
5755;BME280;2902;42.130;24.732;2023-05-25T00:15:21;99367.16;;;18.43;81.89
5755;BME280;2902;42.130;24.732;2023-05-25T00:17:48;99379.53;;;18.44;81.56
5755;BME280;2902;42.130;24.732;2023-05-25T00:20:15;99378.09;;;18.36;83.10
5755;BME280;2902;42.130;24.732;2023-05-25T00:22:42;99382.66;;;18.36;82.44
5755;BME280;2902;42.130;24.732;2023-05-25T00:25:10;99379.72;;;18.37;82.77
5755;BME280;2902;42.130;24.732;2023-05-25T00:27:37;99379.16;;;18.35;82.66
5755;BME280;2902;42.130;24.732;2023-05-25T00:30:06;99376.94;;;18.32;81.97
5755;BME280;2902;42.130;24.732;2023-05-25T00:32:33;99374.84;;;18.34;82.10
5755;BME280;2902;42.130;24.732;2023-05-25T00:35:00;99374.59;;;18.36;81.99
5755;BME280;2902;42.130;24.732;2023-05-25T00:37:27;99376.28;;;18.25;82.22
5755;BME280;2902;42.130;24.732;2023-05-25T00:39:54;99367.03;;;18.16;82.90
5755;BME280;2902;42.130;24.732;2023-05-25T00:42:20;99370.03;;;18.20;83.25
5755;BME280;2902;42.130;24.732;2023-05-25T00:44:49;99370.63;;;18.22;83.06
5755;BME280;2902;42.130;24.732;2023-05-25T00:47:17;99374.91;;;18.23;82.61
5755;BME280;2902;42.130;24.732;2023-05-25T00:49:43;99362.72;;;18.15;83.04
5755;BME280;2902;42.130;24.732;2023-05-25T00:52:11;99371.84;;;18.14;83.60
5755;BME280;2902;42.130;24.732;2023-05-25T00:54:38;99374.78;;;18.13;83.36
5755;BME280;2902;42.130;24.732;2023-05-25T00:57:06;99365.00;;;18.07;83.43
5755;BME280;2902;42.130;24.732;2023-05-25T00:59:36;99372.59;;;18.10;83.77
5755;BME280;2902;42.130;24.732;2023-05-25T01:02:07;99366.25;;;17.99;82.96
5755;BME280;2902;42.130;24.732;2023-05-25T01:04:37;99367.31;;;17.82;84.17
5755;BME280;2902;42.130;24.732;2023-05-25T01:07:08;99374.00;;;17.79;84.59
5755;BME280;2902;42.130;24.732;2023-05-25T01:09:38;99365.88;;;17.74;85.22
5755;BME280;2902;42.130;24.732;2023-05-25T01:12:06;99372.63;;;17.77;85.01
5755;BME280;2902;42.130;24.732;2023-05-25T01:14:36;99361.88;;;17.77;85.15
5755;BME280;2902;42.130;24.732;2023-05-25T01:17:03;99372.47;;;17.83;85.76
5755;BME280;2902;42.130;24.732;2023-05-25T01:19:31;99372.03;;;17.75;84.44
5755;BME280;2902;42.130;24.732;2023-05-25T01:22:07;99359.53;;;17.64;85.40
5755;BME280;2902;42.130;24.732;2023-05-25T01:24:40;99365.53;;;17.54;85.10
5755;BME280;2902;42.130;24.732;2023-05-25T01:27:12;99354.38;;;17.46;85.05
5755;BME280;2902;42.130;24.732;2023-05-25T01:29:43;99360.81;;;17.45;85.99
5755;BME280;2902;42.130;24.732;2023-05-25T01:32:11;99361.88;;;17.44;85.77
5755;BME280;2902;42.130;24.732;2023-05-25T01:34:40;99355.22;;;17.46;85.93
5755;BME280;2902;42.130;24.732;2023-05-25T01:37:10;99354.50;;;17.51;85.96
5755;BME280;2902;42.130;24.732;2023-05-25T01:39:38;99355.28;;;17.51;86.18
5755;BME280;2902;42.130;24.732;2023-05-25T01:42:05;99356.59;;;17.49;86.07
5755;BME280;2902;42.130;24.732;2023-05-25T01:44:32;99350.56;;;17.42;86.78
5755;BME280;2902;42.130;24.732;2023-05-25T01:47:03;99354.38;;;17.46;86.54
5755;BME280;2902;42.130;24.732;2023-05-25T01:49:36;99357.56;;;17.43;86.66
5755;BME280;2902;42.130;24.732;2023-05-25T01:52:08;99304.63;;;17.10;86.86
5755;BME280;2902;42.130;24.732;2023-05-25T01:54:43;99349.38;;;17.38;87.32
5755;BME280;2902;42.130;24.732;2023-05-25T01:57:14;99361.47;;;17.52;86.66
5755;BME280;2902;42.130;24.732;2023-05-25T01:59:42;99365.78;;;17.53;86.66
5755;BME280;2902;42.130;24.732;2023-05-25T02:02:10;99368.38;;;17.48;87.60
5755;BME280;2902;42.130;24.732;2023-05-25T02:04:38;99363.50;;;17.45;86.68
5755;BME280;2902;42.130;24.732;2023-05-25T02:07:05;99364.09;;;17.47;86.92
5755;BME280;2902;42.130;24.732;2023-05-25T02:09:32;99368.88;;;17.45;87.22
5755;BME280;2902;42.130;24.732;2023-05-25T02:12:00;99375.19;;;17.39;87.41
5755;BME280;2902;42.130;24.732;2023-05-25T02:14:27;99381.03;;;17.36;86.94
5755;BME280;2902;42.130;24.732;2023-05-25T02:16:54;99378.28;;;17.31;88.19
5755;BME280;2902;42.130;24.732;2023-05-25T02:19:22;99377.78;;;17.34;88.24
5755;BME280;2902;42.130;24.732;2023-05-25T02:21:48;99371.44;;;17.40;87.76
5755;BME280;2902;42.130;24.732;2023-05-25T02:24:15;99370.50;;;17.46;87.36
5755;BME280;2902;42.130;24.732;2023-05-25T02:26:42;99374.91;;;17.52;86.84
5755;BME280;2902;42.130;24.732;2023-05-25T02:29:10;99364.31;;;17.45;86.71
5755;BME280;2902;42.130;24.732;2023-05-25T02:31:37;99370.59;;;17.51;86.59
5755;BME280;2902;42.130;24.732;2023-05-25T02:34:04;99382.72;;;17.53;87.06
5755;BME280;2902;42.130;24.732;2023-05-25T02:36:32;99358.97;;;17.34;87.21
5755;BME280;2902;42.130;24.732;2023-05-25T02:38:59;99375.88;;;17.46;87.50
5755;BME280;2902;42.130;24.732;2023-05-25T02:41:25;99383.50;;;17.37;88.53
5755;BME280;2902;42.130;24.732;2023-05-25T02:43:52;99376.63;;;17.30;88.01
5755;BME280;2902;42.130;24.732;2023-05-25T02:46:20;99378.56;;;17.18;87.33
5755;BME280;2902;42.130;24.732;2023-05-25T02:48:47;99378.84;;;17.05;87.95
5755;BME280;2902;42.130;24.732;2023-05-25T02:51:14;99376.84;;;16.84;88.20
5755;BME280;2902;42.130;24.732;2023-05-25T02:53:41;99358.72;;;16.63;89.80
5755;BME280;2902;42.130;24.732;2023-05-25T02:56:08;99380.72;;;16.76;89.87
5755;BME280;2902;42.130;24.732;2023-05-25T02:58:35;99383.88;;;16.73;90.01
5755;BME280;2902;42.130;24.732;2023-05-25T03:01:02;99384.56;;;16.69;90.18
5755;BME280;2902;42.130;24.732;2023-05-25T03:03:31;99379.09;;;16.75;90.48
5755;BME280;2902;42.130;24.732;2023-05-25T03:05:58;99391.22;;;16.78;90.46
5755;BME280;2902;42.130;24.732;2023-05-25T03:08:24;99389.47;;;16.83;91.29
5755;BME280;2902;42.130;24.732;2023-05-25T03:10:51;99397.69;;;16.93;90.95
5755;BME280;2902;42.130;24.732;2023-05-25T03:13:18;99395.94;;;16.99;90.68
5755;BME280;2902;42.130;24.732;2023-05-25T03:15:44;99407.06;;;17.07;89.63
5755;BME280;2902;42.130;24.732;2023-05-25T03:18:11;99407.34;;;17.06;89.80
5755;BME280;2902;42.130;24.732;2023-05-25T03:20:39;99402.63;;;17.13;89.76
5755;BME280;2902;42.130;24.732;2023-05-25T03:23:06;99401.69;;;17.19;89.15
5755;BME280;2902;42.130;24.732;2023-05-25T03:25:33;99409.81;;;17.24;88.91
5755;BME280;2902;42.130;24.732;2023-05-25T03:27:59;99410.66;;;17.24;88.32
5755;BME280;2902;42.130;24.732;2023-05-25T03:30:26;99416.50;;;17.21;87.51
5755;BME280;2902;42.130;24.732;2023-05-25T03:32:54;99406.91;;;17.25;87.92
5755;BME280;2902;42.130;24.732;2023-05-25T03:35:20;99413.25;;;17.36;87.08
5755;BME280;2902;42.130;24.732;2023-05-25T03:37:48;99406.00;;;17.48;86.59
5755;BME280;2902;42.130;24.732;2023-05-25T03:40:15;99406.16;;;17.58;87.04
5755;BME280;2902;42.130;24.732;2023-05-25T03:42:42;99401.91;;;17.62;86.40
5755;BME280;2902;42.130;24.732;2023-05-25T03:45:09;99401.53;;;17.70;86.28
5755;BME280;2902;42.130;24.732;2023-05-25T03:47:36;99406.00;;;17.81;84.75
5755;BME280;2902;42.130;24.732;2023-05-25T03:50:03;99402.75;;;17.79;84.22
5755;BME280;2902;42.130;24.732;2023-05-25T03:52:31;99409.97;;;17.95;85.13
5755;BME280;2902;42.130;24.732;2023-05-25T03:54:59;99413.16;;;18.08;83.28
5755;BME280;2902;42.130;24.732;2023-05-25T03:57:28;99412.31;;;18.24;83.74
5755;BME280;2902;42.130;24.732;2023-05-25T03:59:55;99416.13;;;18.45;82.84
5755;BME280;2902;42.130;24.732;2023-05-25T04:02:22;99419.72;;;18.72;82.03
5755;BME280;2902;42.130;24.732;2023-05-25T04:04:49;99421.59;;;19.14;80.72
5755;BME280;2902;42.130;24.732;2023-05-25T04:07:17;99435.38;;;19.71;77.57
5755;BME280;2902;42.130;24.732;2023-05-25T04:09:44;99431.38;;;20.05;74.57
5755;BME280;2902;42.130;24.732;2023-05-25T04:12:12;99436.66;;;20.26;73.02
5755;BME280;2902;42.130;24.732;2023-05-25T04:14:39;99438.09;;;20.39;72.35
5755;BME280;2902;42.130;24.732;2023-05-25T04:17:07;99440.34;;;20.57;71.77
5755;BME280;2902;42.130;24.732;2023-05-25T04:19:33;99445.81;;;20.67;70.60
5755;BME280;2902;42.130;24.732;2023-05-25T04:22:00;99452.63;;;20.85;69.80
5755;BME280;2902;42.130;24.732;2023-05-25T04:24:27;99450.28;;;20.93;70.62
5755;BME280;2902;42.130;24.732;2023-05-25T04:26:54;99456.81;;;21.07;69.71
5755;BME280;2902;42.130;24.732;2023-05-25T04:29:22;99455.00;;;21.23;68.85
5755;BME280;2902;42.130;24.732;2023-05-25T04:31:49;99449.38;;;21.49;71.69
5755;BME280;2902;42.130;24.732;2023-05-25T04:34:16;99444.31;;;21.93;69.00
5755;BME280;2902;42.130;24.732;2023-05-25T04:36:42;99452.13;;;22.49;66.07
5755;BME280;2902;42.130;24.732;2023-05-25T04:39:09;99464.31;;;23.35;62.76
5755;BME280;2902;42.130;24.732;2023-05-25T04:41:36;99474.78;;;23.95;58.44
5755;BME280;2902;42.130;24.732;2023-05-25T04:44:03;99471.91;;;24.44;57.56
5755;BME280;2902;42.130;24.732;2023-05-25T04:46:31;99474.63;;;25.20;55.93
5755;BME280;2902;42.130;24.732;2023-05-25T04:49:01;99468.09;;;25.81;51.49
5755;BME280;2902;42.130;24.732;2023-05-25T04:51:28;99460.44;;;25.46;51.77
5755;BME280;2902;42.130;24.732;2023-05-25T04:53:56;99464.78;;;25.24;52.97
5755;BME280;2902;42.130;24.732;2023-05-25T04:56:23;99454.41;;;25.26;52.72
5755;BME280;2902;42.130;24.732;2023-05-25T04:58:51;99462.03;;;25.66;51.90
5755;BME280;2902;42.130;24.732;2023-05-25T05:01:18;99465.09;;;26.15;50.03
5755;BME280;2902;42.130;24.732;2023-05-25T05:03:46;99463.03;;;26.39;49.38
5755;BME280;2902;42.130;24.732;2023-05-25T05:06:13;99463.19;;;26.47;47.89
5755;BME280;2902;42.130;24.732;2023-05-25T05:08:40;99460.94;;;26.49;47.79
5755;BME280;2902;42.130;24.732;2023-05-25T05:11:07;99456.72;;;26.43;47.53
5755;BME280;2902;42.130;24.732;2023-05-25T05:13:34;99456.69;;;26.30;48.54
5755;BME280;2902;42.130;24.732;2023-05-25T05:16:00;99446.59;;;25.80;50.80
5755;BME280;2902;42.130;24.732;2023-05-25T05:18:27;99450.00;;;25.72;50.11
5755;BME280;2902;42.130;24.732;2023-05-25T05:20:55;99450.06;;;26.04;49.06
5755;BME280;2902;42.130;24.732;2023-05-25T05:23:22;99449.63;;;25.97;50.18
5755;BME280;2902;42.130;24.732;2023-05-25T05:25:49;99449.53;;;26.02;48.98
5755;BME280;2902;42.130;24.732;2023-05-25T05:28:15;99451.53;;;25.96;48.55
5755;BME280;2902;42.130;24.732;2023-05-25T05:30:42;99454.13;;;25.51;49.95
5755;BME280;2902;42.130;24.732;2023-05-25T05:33:11;99452.28;;;25.23;50.93
5755;BME280;2902;42.130;24.732;2023-05-25T05:35:37;99453.78;;;25.52;51.87
5755;BME280;2902;42.130;24.732;2023-05-25T05:38:05;99446.25;;;25.49;51.58
5755;BME280;2902;42.130;24.732;2023-05-25T05:40:32;99457.19;;;26.00;50.08
5755;BME280;2902;42.130;24.732;2023-05-25T05:42:59;99461.81;;;26.77;49.12
5755;BME280;2902;42.130;24.732;2023-05-25T05:45:25;99467.66;;;27.38;45.70
5755;BME280;2902;42.130;24.732;2023-05-25T05:47:52;99460.88;;;27.49;48.18
5755;BME280;2902;42.130;24.732;2023-05-25T05:50:19;99455.09;;;27.64;47.48
5755;BME280;2902;42.130;24.732;2023-05-25T05:52:46;99458.59;;;26.88;47.54
5755;BME280;2902;42.130;24.732;2023-05-25T05:55:15;99460.28;;;27.52;47.09
5755;BME280;2902;42.130;24.732;2023-05-25T05:57:42;99460.53;;;27.99;46.42
5755;BME280;2902;42.130;24.732;2023-05-25T06:00:09;99457.75;;;28.13;46.16
5755;BME280;2902;42.130;24.732;2023-05-25T06:02:36;99459.47;;;28.31;45.85
5755;BME280;2902;42.130;24.732;2023-05-25T06:05:04;99457.88;;;28.60;44.87
5755;BME280;2902;42.130;24.732;2023-05-25T06:07:31;99460.19;;;28.75;44.44
5755;BME280;2902;42.130;24.732;2023-05-25T06:09:59;99473.09;;;28.83;42.57
5755;BME280;2902;42.130;24.732;2023-05-25T06:12:27;99458.34;;;28.10;43.79
5755;BME280;2902;42.130;24.732;2023-05-25T06:14:54;99457.38;;;26.94;45.64
5755;BME280;2902;42.130;24.732;2023-05-25T06:17:22;99461.53;;;26.33;47.49
5755;BME280;2902;42.130;24.732;2023-05-25T06:19:48;99446.16;;;25.73;49.14
5755;BME280;2902;42.130;24.732;2023-05-25T06:22:15;99449.44;;;24.90;51.66
5755;BME280;2902;42.130;24.732;2023-05-25T06:24:42;99452.84;;;24.77;52.26
5755;BME280;2902;42.130;24.732;2023-05-25T06:27:09;99454.81;;;25.38;53.47
5755;BME280;2902;42.130;24.732;2023-05-25T06:29:38;99456.50;;;25.52;51.32
5755;BME280;2902;42.130;24.732;2023-05-25T06:32:05;99465.66;;;25.61;50.27
5755;BME280;2902;42.130;24.732;2023-05-25T06:34:32;99463.06;;;25.33;51.50
5755;BME280;2902;42.130;24.732;2023-05-25T06:36:59;99467.09;;;25.91;49.58
5755;BME280;2902;42.130;24.732;2023-05-25T06:39:26;99477.50;;;26.39;50.11
5755;BME280;2902;42.130;24.732;2023-05-25T06:41:53;99466.78;;;26.88;49.12
5755;BME280;2902;42.130;24.732;2023-05-25T06:44:19;99474.84;;;27.34;46.61
5755;BME280;2902;42.130;24.732;2023-05-25T06:46:47;99476.75;;;27.06;46.73
5755;BME280;2902;42.130;24.732;2023-05-25T06:49:14;99464.66;;;26.99;47.48
5755;BME280;2902;42.130;24.732;2023-05-25T06:51:41;99457.16;;;26.64;50.00
5755;BME280;2902;42.130;24.732;2023-05-25T06:54:07;99459.63;;;26.92;49.42
5755;BME280;2902;42.130;24.732;2023-05-25T06:56:36;99457.44;;;27.16;48.70
5755;BME280;2902;42.130;24.732;2023-05-25T06:59:02;99455.25;;;27.45;48.17
5755;BME280;2902;42.130;24.732;2023-05-25T07:01:29;99462.16;;;27.65;45.90
5755;BME280;2902;42.130;24.732;2023-05-25T07:03:57;99460.47;;;27.42;45.86
5755;BME280;2902;42.130;24.732;2023-05-25T07:06:24;99454.25;;;27.01;50.19
5755;BME280;2902;42.130;24.732;2023-05-25T07:08:51;99454.13;;;27.19;47.26
5755;BME280;2902;42.130;24.732;2023-05-25T07:11:17;99453.59;;;27.80;45.97
5755;BME280;2902;42.130;24.732;2023-05-25T07:13:46;99464.06;;;28.22;43.47
5755;BME280;2902;42.130;24.732;2023-05-25T07:16:13;99470.03;;;28.46;42.98
5755;BME280;2902;42.130;24.732;2023-05-25T07:18:39;99459.03;;;28.68;42.91
5755;BME280;2902;42.130;24.732;2023-05-25T07:21:08;99470.97;;;28.72;40.52
5755;BME280;2902;42.130;24.732;2023-05-25T07:23:34;99471.94;;;28.76;42.42
5755;BME280;2902;42.130;24.732;2023-05-25T07:26:01;99465.84;;;29.18;39.50
5755;BME280;2902;42.130;24.732;2023-05-25T07:28:28;99463.09;;;29.18;38.99
5755;BME280;2902;42.130;24.732;2023-05-25T07:30:55;99459.44;;;29.40;40.57
5755;BME280;2902;42.130;24.732;2023-05-25T07:33:21;99460.31;;;29.91;38.87
5755;BME280;2902;42.130;24.732;2023-05-25T07:35:48;99460.25;;;30.42;37.18
5755;BME280;2902;42.130;24.732;2023-05-25T07:38:17;99449.19;;;30.30;36.97
5755;BME280;2902;42.130;24.732;2023-05-25T07:40:44;99458.88;;;30.65;35.70
5755;BME280;2902;42.130;24.732;2023-05-25T07:43:11;99455.94;;;30.33;35.70
5755;BME280;2902;42.130;24.732;2023-05-25T07:45:38;99460.25;;;30.42;36.34
5755;BME280;2902;42.130;24.732;2023-05-25T07:48:05;99458.84;;;30.82;35.84
5755;BME280;2902;42.130;24.732;2023-05-25T07:50:33;99459.63;;;31.20;36.21
5755;BME280;2902;42.130;24.732;2023-05-25T07:53:00;99459.81;;;31.44;35.44
5755;BME280;2902;42.130;24.732;2023-05-25T07:55:28;99456.28;;;31.64;34.64
5755;BME280;2902;42.130;24.732;2023-05-25T07:57:55;99458.25;;;31.84;34.06
5755;BME280;2902;42.130;24.732;2023-05-25T08:00:22;99456.75;;;31.66;33.26
5755;BME280;2902;42.130;24.732;2023-05-25T08:02:49;99456.38;;;31.56;34.61
5755;BME280;2902;42.130;24.732;2023-05-25T08:05:15;99455.13;;;31.65;34.30
5755;BME280;2902;42.130;24.732;2023-05-25T08:07:43;99466.53;;;31.55;34.36
5755;BME280;2902;42.130;24.732;2023-05-25T08:10:10;99460.34;;;31.38;34.91
5755;BME280;2902;42.130;24.732;2023-05-25T08:12:38;99459.94;;;31.27;35.70
5755;BME280;2902;42.130;24.732;2023-05-25T08:15:06;99466.72;;;31.21;36.73
5755;BME280;2902;42.130;24.732;2023-05-25T08:17:33;99459.19;;;31.10;36.03
5755;BME280;2902;42.130;24.732;2023-05-25T08:19:59;99452.91;;;30.80;35.91
5755;BME280;2902;42.130;24.732;2023-05-25T08:22:30;99453.75;;;30.72;36.88
5755;BME280;2902;42.130;24.732;2023-05-25T08:24:57;99445.81;;;30.62;37.15
5755;BME280;2902;42.130;24.732;2023-05-25T08:27:23;99448.69;;;29.86;37.84
5755;BME280;2902;42.130;24.732;2023-05-25T08:29:52;99441.28;;;30.03;38.53
5755;BME280;2902;42.130;24.732;2023-05-25T08:32:18;99442.06;;;30.12;39.21
5755;BME280;2902;42.130;24.732;2023-05-25T08:34:45;99441.28;;;30.03;39.30
5755;BME280;2902;42.130;24.732;2023-05-25T08:37:12;99442.06;;;30.12;39.07
5755;BME280;2902;42.130;24.732;2023-05-25T08:39:38;99440.63;;;30.23;39.19
5755;BME280;2902;42.130;24.732;2023-05-25T08:42:06;99435.41;;;30.47;38.88
5755;BME280;2902;42.130;24.732;2023-05-25T08:44:34;99441.13;;;30.00;38.33
5755;BME280;2902;42.130;24.732;2023-05-25T08:47:05;99440.00;;;29.75;39.94
5755;BME280;2902;42.130;24.732;2023-05-25T08:49:33;99426.75;;;30.28;39.11
5755;BME280;2902;42.130;24.732;2023-05-25T08:52:03;99428.03;;;30.39;38.50
5755;BME280;2902;42.130;24.732;2023-05-25T08:54:34;99431.59;;;30.31;37.74
5755;BME280;2902;42.130;24.732;2023-05-25T08:57:05;99433.06;;;30.66;38.00
5755;BME280;2902;42.130;24.732;2023-05-25T08:59:38;99426.97;;;30.98;37.83
5755;BME280;2902;42.130;24.732;2023-05-25T09:02:20;99428.84;;;31.15;37.16
5755;BME280;2902;42.130;24.732;2023-05-25T09:04:47;99432.34;;;31.24;37.00
5755;BME280;2902;42.130;24.732;2023-05-25T09:07:14;99434.13;;;31.20;36.91
5755;BME280;2902;42.130;24.732;2023-05-25T09:09:41;99433.56;;;31.55;36.05
5755;BME280;2902;42.130;24.732;2023-05-25T09:12:08;99433.19;;;31.86;35.11
5755;BME280;2902;42.130;24.732;2023-05-25T09:14:35;99425.47;;;32.12;33.95
5755;BME280;2902;42.130;24.732;2023-05-25T09:17:04;99425.72;;;32.39;33.43
5755;BME280;2902;42.130;24.732;2023-05-25T09:19:34;99424.78;;;32.47;32.56
5755;BME280;2902;42.130;24.732;2023-05-25T09:22:01;99414.84;;;32.22;33.25
5755;BME280;2902;42.130;24.732;2023-05-25T09:24:28;99415.41;;;32.36;34.10
5755;BME280;2902;42.130;24.732;2023-05-25T09:26:55;99414.19;;;32.58;32.94
5755;BME280;2902;42.130;24.732;2023-05-25T09:29:21;99413.63;;;32.76;31.41
5755;BME280;2902;42.130;24.732;2023-05-25T09:31:48;99417.97;;;32.21;31.75
5755;BME280;2902;42.130;24.732;2023-05-25T09:34:15;99405.66;;;32.06;33.82
5755;BME280;2902;42.130;24.732;2023-05-25T09:36:43;99407.63;;;31.85;32.65
5755;BME280;2902;42.130;24.732;2023-05-25T09:39:10;99416.19;;;32.37;31.71
5755;BME280;2902;42.130;24.732;2023-05-25T09:41:40;99413.09;;;32.38;30.79
5755;BME280;2902;42.130;24.732;2023-05-25T09:44:07;99399.47;;;32.09;32.18
5755;BME280;2902;42.130;24.732;2023-05-25T09:46:34;99403.25;;;32.37;30.96
5755;BME280;2902;42.130;24.732;2023-05-25T09:49:03;99394.91;;;32.13;30.44
5755;BME280;2902;42.130;24.732;2023-05-25T09:51:30;99384.47;;;32.07;32.24
5755;BME280;2902;42.130;24.732;2023-05-25T09:53:59;99377.03;;;32.07;32.23
5755;BME280;2902;42.130;24.732;2023-05-25T09:56:26;99379.28;;;31.93;32.33
5755;BME280;2902;42.130;24.732;2023-05-25T09:58:53;99372.66;;;31.94;33.63
5755;BME280;2902;42.130;24.732;2023-05-25T10:01:22;99376.06;;;31.71;31.99
5755;BME280;2902;42.130;24.732;2023-05-25T10:03:49;99377.44;;;31.65;32.93
5755;BME280;2902;42.130;24.732;2023-05-25T10:06:16;99361.63;;;31.82;32.93
5755;BME280;2902;42.130;24.732;2023-05-25T10:08:43;99370.03;;;31.98;31.03
5755;BME280;2902;42.130;24.732;2023-05-25T10:11:12;99371.63;;;31.99;31.83
5755;BME280;2902;42.130;24.732;2023-05-25T10:13:43;99364.19;;;31.99;32.15
5755;BME280;2902;42.130;24.732;2023-05-25T10:16:14;99367.59;;;31.96;32.70
5755;BME280;2902;42.130;24.732;2023-05-25T10:18:46;99364.69;;;31.81;30.80
5755;BME280;2902;42.130;24.732;2023-05-25T10:21:15;99362.97;;;31.56;31.14
5755;BME280;2902;42.130;24.732;2023-05-25T10:23:44;99360.94;;;31.44;31.33
5755;BME280;2902;42.130;24.732;2023-05-25T10:26:17;99364.69;;;31.19;30.99
5755;BME280;2902;42.130;24.732;2023-05-25T10:28:49;99361.75;;;31.24;31.08
5755;BME280;2902;42.130;24.732;2023-05-25T10:31:17;99376.25;;;31.33;30.63
5755;BME280;2902;42.130;24.732;2023-05-25T10:33:44;99379.16;;;31.28;30.69
5755;BME280;2902;42.130;24.732;2023-05-25T10:36:12;99369.69;;;31.46;31.60
5755;BME280;2902;42.130;24.732;2023-05-25T10:38:40;99383.63;;;31.41;31.08
5755;BME280;2902;42.130;24.732;2023-05-25T10:41:09;99379.97;;;31.29;31.58
5755;BME280;2902;42.130;24.732;2023-05-25T10:43:38;99373.53;;;31.04;31.62
5755;BME280;2902;42.130;24.732;2023-05-25T10:46:05;99369.22;;;30.57;31.79
5755;BME280;2902;42.130;24.732;2023-05-25T10:48:36;99371.00;;;30.53;31.81
5755;BME280;2902;42.130;24.732;2023-05-25T10:51:03;99350.50;;;30.30;31.52
5755;BME280;2902;42.130;24.732;2023-05-25T10:53:31;99367.31;;;30.03;32.49
5755;BME280;2902;42.130;24.732;2023-05-25T10:56:01;99368.13;;;29.95;34.66
5755;BME280;2902;42.130;24.732;2023-05-25T10:58:29;99365.25;;;29.83;33.68
5755;BME280;2902;42.130;24.732;2023-05-25T11:00:58;99363.97;;;29.72;34.42
5755;BME280;2902;42.130;24.732;2023-05-25T11:03:52;99361.75;;;29.57;33.93
5755;BME280;2902;42.130;24.732;2023-05-25T11:06:22;99363.81;;;29.35;35.09
5755;BME280;2902;42.130;24.732;2023-05-25T11:08:50;99354.22;;;28.98;33.87
5755;BME280;2902;42.130;24.732;2023-05-25T11:11:19;99362.88;;;28.74;34.81
5755;BME280;2902;42.130;24.732;2023-05-25T11:13:47;99368.19;;;28.40;35.58
5755;BME280;2902;42.130;24.732;2023-05-25T11:16:20;99363.06;;;28.08;37.37
5755;BME280;2902;42.130;24.732;2023-05-25T11:18:51;99364.59;;;28.23;38.52
5755;BME280;2902;42.130;24.732;2023-05-25T11:21:24;99368.78;;;28.29;39.09
5755;BME280;2902;42.130;24.732;2023-05-25T11:24:16;99364.94;;;28.30;39.56
5755;BME280;2902;42.130;24.732;2023-05-25T11:26:54;99372.50;;;28.33;39.92
5755;BME280;2902;42.130;24.732;2023-05-25T11:29:21;99370.88;;;28.32;39.99
5755;BME280;2902;42.130;24.732;2023-05-25T11:31:53;99357.22;;;28.32;40.14
5755;BME280;2902;42.130;24.732;2023-05-25T11:34:20;99370.75;;;28.37;40.44
5755;BME280;2902;42.130;24.732;2023-05-25T11:36:52;99366.72;;;28.34;42.36
5755;BME280;2902;42.130;24.732;2023-05-25T11:39:20;99363.31;;;28.29;43.49
5755;BME280;2902;42.130;24.732;2023-05-25T11:41:48;99371.03;;;28.27;45.21
5755;BME280;2902;42.130;24.732;2023-05-25T11:44:24;99365.56;;;28.27;45.35
5755;BME280;2902;42.130;24.732;2023-05-25T11:46:53;99363.88;;;28.09;46.63
5755;BME280;2902;42.130;24.732;2023-05-25T11:49:21;99360.63;;;28.07;46.72
5755;BME280;2902;42.130;24.732;2023-05-25T11:51:48;99361.16;;;28.09;46.30
5755;BME280;2902;42.130;24.732;2023-05-25T11:54:22;99346.84;;;28.12;46.27
5755;BME280;2902;42.130;24.732;2023-05-25T11:56:49;99347.19;;;28.19;44.81
5755;BME280;2902;42.130;24.732;2023-05-25T11:59:16;99341.13;;;28.22;45.40
5755;BME280;2902;42.130;24.732;2023-05-25T12:01:43;99347.91;;;28.33;44.83
5755;BME280;2902;42.130;24.732;2023-05-25T12:04:11;99347.66;;;28.43;44.69
5755;BME280;2902;42.130;24.732;2023-05-25T12:06:37;99353.34;;;28.55;44.17
5755;BME280;2902;42.130;24.732;2023-05-25T12:09:10;99351.91;;;28.66;43.71
5755;BME280;2902;42.130;24.732;2023-05-25T12:11:37;99347.75;;;28.77;43.22
5755;BME280;2902;42.130;24.732;2023-05-25T12:14:05;99345.84;;;28.86;42.31
5755;BME280;2902;42.130;24.732;2023-05-25T12:16:32;99340.88;;;28.96;41.47
5755;BME280;2902;42.130;24.732;2023-05-25T12:19:01;99347.84;;;29.11;40.74
5755;BME280;2902;42.130;24.732;2023-05-25T12:21:30;99338.03;;;29.10;42.50
5755;BME280;2902;42.130;24.732;2023-05-25T12:23:57;99339.19;;;29.17;41.60
5755;BME280;2902;42.130;24.732;2023-05-25T12:26:26;99347.53;;;29.12;41.69
5755;BME280;2902;42.130;24.732;2023-05-25T12:29:00;99347.84;;;29.11;39.98
5755;BME280;2902;42.130;24.732;2023-05-25T12:31:28;99350.75;;;29.23;41.04
5755;BME280;2902;42.130;24.732;2023-05-25T12:34:03;99344.47;;;29.31;40.55
5755;BME280;2902;42.130;24.732;2023-05-25T12:36:43;99342.22;;;29.24;41.10
5755;BME280;2902;42.130;24.732;2023-05-25T12:39:11;99334.97;;;29.11;41.88
5755;BME280;2902;42.130;24.732;2023-05-25T12:41:46;99332.72;;;29.05;41.18
5755;BME280;2902;42.130;24.732;2023-05-25T12:44:21;99323.66;;;28.87;41.78
5755;BME280;2902;42.130;24.732;2023-05-25T12:46:48;99346.34;;;28.88;41.13
5755;BME280;2902;42.130;24.732;2023-05-25T12:49:29;99346.16;;;28.76;42.24
5755;BME280;2902;42.130;24.732;2023-05-25T12:51:58;99341.31;;;28.73;40.73
5755;BME280;2902;42.130;24.732;2023-05-25T12:54:39;99333.28;;;28.85;41.73
5755;BME280;2902;42.130;24.732;2023-05-25T12:57:09;99330.94;;;29.00;41.57
5755;BME280;2902;42.130;24.732;2023-05-25T12:59:37;99333.06;;;29.12;40.79
5755;BME280;2902;42.130;24.732;2023-05-25T13:02:05;99339.97;;;29.18;41.00
5755;BME280;2902;42.130;24.732;2023-05-25T13:04:33;99338.81;;;29.19;39.96
5755;BME280;2902;42.130;24.732;2023-05-25T13:07:01;99324.03;;;29.20;39.62
5755;BME280;2902;42.130;24.732;2023-05-25T13:09:28;99337.72;;;29.37;40.90
5755;BME280;2902;42.130;24.732;2023-05-25T13:11:56;99338.19;;;29.22;40.72
5755;BME280;2902;42.130;24.732;2023-05-25T13:14:24;99347.84;;;29.11;42.56